Time;durP1;ratioP1;P1;durP2;ratioP2;P2;SDS_P1;SDS_P2;PMS_P1;PMS_P2;Temp;Humidity;BMP_temperature;BMP_pressure;BME280_temperature;BME280_humidity;BME280_pressure;Samples;Min_cycle;Max_cycle;Signal;HPM_P1;HPM_P2
2023/08/05 00:00:16;;;;;;;6.43;3.55;;;;;;;;;;4990502;28;20038;-75
2023/08/05 00:03:01;;;;;;;4.88;3.70;;;;;;;;;;4994377;28;20328;-73
2023/08/05 00:05:47;;;;;;;8.60;4.20;;;;;;;;;;5007488;28;20133;-77
2023/08/05 00:08:32;;;;;;;9.55;3.65;;;;;;;;;;5005058;28;20065;-74
2023/08/05 00:11:17;;;;;;;5.43;3.38;;;;;;;;;;5016918;28;20018;-73
2023/08/05 00:14:02;;;;;;;5.93;3.90;;;;;;;;;;5015817;28;20076;-73
2023/08/05 00:16:48;;;;;;;4.90;3.70;;;;;;;;;;5002925;28;20077;-74
2023/08/05 00:19:33;;;;;;;5.53;3.97;;;;;;;;;;5009941;28;20049;-67
2023/08/05 00:22:18;;;;;;;7.07;4.47;;;;;;;;;;4997776;28;20117;-75
2023/08/05 00:25:03;;;;;;;6.85;3.70;;;;;;;;;;4992571;28;20023;-76
2023/08/05 00:27:49;;;;;;;6.68;4.15;;;;;;;;;;4991736;28;20034;-75
2023/08/05 00:30:34;;;;;;;8.02;3.50;;;;;;;;;;5005689;28;20033;-76
2023/08/05 00:33:19;;;;;;;6.78;3.55;;;;;;;;;;4995289;28;20335;-75
2023/08/05 00:36:04;;;;;;;8.23;3.67;;;;;;;;;;4997758;28;20026;-75
2023/08/05 00:38:50;;;;;;;7.10;4.10;;;;;;;;;;4999840;28;20065;-74
2023/08/05 00:41:35;;;;;;;7.47;3.45;;;;;;;;;;5001090;28;20366;-69
2023/08/05 00:44:20;;;;;;;5.38;3.03;;;;;;;;;;4995150;28;20026;-69
2023/08/05 00:47:05;;;;;;;7.15;3.60;;;;;;;;;;5004623;28;20033;-69
2023/08/05 00:49:51;;;;;;;6.88;3.75;;;;;;;;;;5008195;28;20025;-68
2023/08/05 00:52:37;;;;;;;6.53;3.70;;;;;;;;;;5004005;28;20065;-69
2023/08/05 00:55:22;;;;;;;7.15;3.85;;;;;;;;;;4988224;28;20085;-73
2023/08/05 00:58:08;;;;;;;6.05;3.83;;;;;;;;;;5000655;28;20485;-76
2023/08/05 01:00:53;;;;;;;5.95;3.75;;;;;;;;;;5002625;28;20030;-73
2023/08/05 01:03:38;;;;;;;8.35;3.65;;;;;;;;;;4996414;28;20034;-75
2023/08/05 01:06:24;;;;;;;8.65;3.60;;;;;;;;;;5011808;28;20104;-74
2023/08/05 01:09:10;;;;;;;6.82;3.72;;;;;;;;;;5016795;28;20017;-75
2023/08/05 01:11:55;;;;;;;7.70;3.60;;;;;;;;;;5006605;28;20030;-74
2023/08/05 01:14:40;;;;;;;5.55;2.83;;;;;;;;;;4994933;28;20473;-72
2023/08/05 01:17:25;;;;;;;5.57;3.25;;;;;;;;;;4995149;28;20030;-70
2023/08/05 01:20:11;;;;;;;5.93;3.53;;;;;;;;;;5017281;28;20553;-72
2023/08/05 01:23:02;;;;;;;7.28;3.97;;;;;;;;;;4995879;28;20081;-69
2023/08/05 01:25:47;;;;;;;9.85;4.15;;;;;;;;;;4991406;28;20038;-71
2023/08/05 01:28:33;;;;;;;7.22;3.35;;;;;;;;;;5004695;28;20088;-70
2023/08/05 01:31:19;;;;;;;5.97;4.00;;;;;;;;;;4999693;28;20072;-69
2023/08/05 01:34:04;;;;;;;6.18;3.95;;;;;;;;;;5000086;28;20137;-74
2023/08/05 01:36:50;;;;;;;8.07;3.70;;;;;;;;;;4994631;28;20452;-71
2023/08/05 01:39:35;;;;;;;6.28;3.38;;;;;;;;;;5004305;28;20030;-73
2023/08/05 01:42:20;;;;;;;5.93;3.55;;;;;;;;;;5010730;28;20427;-72
2023/08/05 01:45:06;;;;;;;8.13;3.40;;;;;;;;;;5016138;28;20033;-73
2023/08/05 01:47:51;;;;;;;6.75;3.47;;;;;;;;;;5008910;28;20018;-71
2023/08/05 01:50:36;;;;;;;6.00;3.78;;;;;;;;;;4992678;28;20022;-71
2023/08/05 01:53:21;;;;;;;6.97;3.45;;;;;;;;;;4997352;28;20034;-74
2023/08/05 01:56:07;;;;;;;7.43;3.65;;;;;;;;;;4991858;28;20045;-74
2023/08/05 01:58:52;;;;;;;7.72;3.83;;;;;;;;;;4996275;28;20038;-74
2023/08/05 02:01:44;;;;;;;7.50;3.50;;;;;;;;;;5003261;28;20113;-74
2023/08/05 02:04:29;;;;;;;4.80;3.03;;;;;;;;;;4994109;28;20377;-73
2023/08/05 02:07:15;;;;;;;9.05;3.50;;;;;;;;;;5000068;28;20052;-76
2023/08/05 02:10:00;;;;;;;6.05;3.63;;;;;;;;;;5001220;28;20066;-72
2023/08/05 02:12:45;;;;;;;7.03;3.90;;;;;;;;;;5001705;28;20484;-74
2023/08/05 02:15:30;;;;;;;5.30;3.50;;;;;;;;;;4992500;28;20041;-74
2023/08/05 02:18:16;;;;;;;6.32;3.47;;;;;;;;;;4999209;28;20026;-74
2023/08/05 02:21:01;;;;;;;10.00;4.32;;;;;;;;;;4997160;28;20034;-74
2023/08/05 02:23:46;;;;;;;8.15;3.95;;;;;;;;;;5006618;28;20037;-74
2023/08/05 02:26:31;;;;;;;6.60;3.20;;;;;;;;;;4990066;28;20044;-75
2023/08/05 02:29:16;;;;;;;6.68;3.60;;;;;;;;;;5003319;28;20025;-75
2023/08/05 02:32:02;;;;;;;9.48;4.45;;;;;;;;;;4996894;28;20022;-71
2023/08/05 02:34:47;;;;;;;7.00;3.50;;;;;;;;;;5001995;28;20493;-71
2023/08/05 02:37:32;;;;;;;7.78;3.63;;;;;;;;;;4997026;28;20362;-71
2023/08/05 02:40:18;;;;;;;7.07;3.28;;;;;;;;;;4995818;28;20278;-71
2023/08/05 02:43:03;;;;;;;4.85;3.40;;;;;;;;;;5003776;28;20033;-70
2023/08/05 02:45:57;;;;;;;9.27;3.47;;;;;;;;;;4997071;28;20117;-75
2023/08/05 02:48:43;;;;;;;9.13;4.22;;;;;;;;;;4992413;28;20050;-73
2023/08/05 02:51:28;;;;;;;6.35;3.38;;;;;;;;;;5002596;28;20047;-76
2023/08/05 02:54:13;;;;;;;7.55;3.78;;;;;;;;;;5007180;28;20041;-75
2023/08/05 02:56:58;;;;;;;7.00;3.70;;;;;;;;;;4993434;28;20022;-74
2023/08/05 02:59:43;;;;;;;7.25;3.50;;;;;;;;;;5000463;28;20034;-74
2023/08/05 03:02:29;;;;;;;5.03;3.38;;;;;;;;;;5004435;28;20022;-73
2023/08/05 03:05:14;;;;;;;5.93;3.72;;;;;;;;;;5002790;28;20119;-74
2023/08/05 03:07:59;;;;;;;6.15;3.40;;;;;;;;;;4989847;28;20058;-71
2023/08/05 03:10:45;;;;;;;7.85;3.83;;;;;;;;;;5005978;28;20518;-71
2023/08/05 03:13:30;;;;;;;7.00;3.70;;;;;;;;;;4998624;28;20041;-71
2023/08/05 03:16:15;;;;;;;6.35;3.28;;;;;;;;;;4994270;28;20064;-70
2023/08/05 03:19:00;;;;;;;7.10;3.67;;;;;;;;;;5010593;28;20535;-71
2023/08/05 03:21:46;;;;;;;4.72;2.83;;;;;;;;;;4999776;28;20018;-71
2023/08/05 03:24:31;;;;;;;7.80;3.65;;;;;;;;;;5014724;28;20495;-69
2023/08/05 03:27:16;;;;;;;9.18;4.18;;;;;;;;;;5024498;28;20075;-68
2023/08/05 03:30:01;;;;;;;6.07;3.83;;;;;;;;;;5010113;28;20061;-68
2023/08/05 03:32:47;;;;;;;6.43;3.72;;;;;;;;;;4997655;28;20033;-68
2023/08/05 03:35:32;;;;;;;4.90;3.10;;;;;;;;;;5006266;28;20025;-68
2023/08/05 03:38:18;;;;;;;6.43;4.38;;;;;;;;;;5002753;28;20025;-69
2023/08/05 03:41:06;;;;;;;7.30;3.83;;;;;;;;;;5000632;28;20091;-70
2023/08/05 03:43:51;;;;;;;7.75;4.22;;;;;;;;;;4997203;28;20026;-73
2023/08/05 03:46:37;;;;;;;7.20;4.15;;;;;;;;;;5006546;28;20030;-72
2023/08/05 03:49:22;;;;;;;7.53;3.75;;;;;;;;;;5007228;28;20025;-73
2023/08/05 03:52:08;;;;;;;5.60;3.15;;;;;;;;;;4994736;28;20501;-72
2023/08/05 03:54:53;;;;;;;8.70;4.10;;;;;;;;;;5002196;28;20092;-73
2023/08/05 03:57:39;;;;;;;7.18;3.88;;;;;;;;;;5014386;28;20040;-75
2023/08/05 04:00:24;;;;;;;5.30;3.58;;;;;;;;;;5012633;28;20021;-72
2023/08/05 04:03:09;;;;;;;5.65;3.25;;;;;;;;;;5011098;28;20030;-69
2023/08/05 04:05:55;;;;;;;5.25;3.42;;;;;;;;;;5002182;28;20034;-67
2023/08/05 04:08:40;;;;;;;4.95;3.70;;;;;;;;;;4997577;28;20034;-70
2023/08/05 04:11:26;;;;;;;6.82;4.20;;;;;;;;;;4993836;28;20121;-68
2023/08/05 04:14:11;;;;;;;8.15;2.95;;;;;;;;;;4996176;28;20183;-69
2023/08/05 04:16:56;;;;;;;5.53;3.70;;;;;;;;;;4992664;28;20091;-68
2023/08/05 04:19:42;;;;;;;8.98;3.95;;;;;;;;;;5010226;28;20034;-71
2023/08/05 04:22:27;;;;;;;7.80;3.88;;;;;;;;;;5003464;28;20389;-73
2023/08/05 04:25:12;;;;;;;8.07;4.13;;;;;;;;;;4992751;28;20487;-72
2023/08/05 04:27:58;;;;;;;7.30;4.30;;;;;;;;;;4995504;28;20022;-72
2023/08/05 04:30:43;;;;;;;5.28;3.40;;;;;;;;;;5010589;28;20045;-70
2023/08/05 04:33:28;;;;;;;9.57;4.28;;;;;;;;;;4999832;28;20034;-72
2023/08/05 04:36:13;;;;;;;4.97;3.90;;;;;;;;;;4990178;28;20034;-71
2023/08/05 04:39:02;;;;;;;7.38;3.75;;;;;;;;;;5000952;28;20049;-71
2023/08/05 04:41:47;;;;;;;6.50;3.60;;;;;;;;;;5004996;28;20113;-70
2023/08/05 04:44:33;;;;;;;6.82;4.10;;;;;;;;;;4993625;28;20278;-72
2023/08/05 04:47:18;;;;;;;6.43;3.85;;;;;;;;;;4991839;28;20601;-71
2023/08/05 04:50:03;;;;;;;6.40;3.90;;;;;;;;;;4993056;28;20116;-70
2023/08/05 04:52:48;;;;;;;8.95;3.72;;;;;;;;;;5010405;28;20049;-72
2023/08/05 04:55:34;;;;;;;5.40;3.88;;;;;;;;;;5009175;28;20037;-74
2023/08/05 04:58:19;;;;;;;7.13;3.88;;;;;;;;;;5000545;28;20014;-70
2023/08/05 05:01:04;;;;;;;7.78;4.05;;;;;;;;;;5014625;28;20054;-69
2023/08/05 05:03:51;;;;;;;6.47;3.67;;;;;;;;;;5014025;28;20025;-69
2023/08/05 05:06:36;;;;;;;6.90;3.70;;;;;;;;;;5008958;28;20049;-68
2023/08/05 05:09:21;;;;;;;7.70;3.85;;;;;;;;;;5003266;28;20073;-69
2023/08/05 05:12:07;;;;;;;7.95;4.38;;;;;;;;;;5008735;28;20032;-69
2023/08/05 05:14:53;;;;;;;6.57;3.50;;;;;;;;;;5010419;28;20072;-75
2023/08/05 05:17:38;;;;;;;5.40;3.88;;;;;;;;;;4990180;28;20018;-75
2023/08/05 05:20:23;;;;;;;10.27;4.53;;;;;;;;;;5011120;28;20541;-74
2023/08/05 05:23:09;;;;;;;10.88;4.70;;;;;;;;;;5010138;28;20025;-74
2023/08/05 05:25:54;;;;;;;7.40;4.45;;;;;;;;;;4996454;28;20100;-75
2023/08/05 05:28:39;;;;;;;6.38;3.53;;;;;;;;;;5010669;28;20112;-75
2023/08/05 05:31:24;;;;;;;7.95;3.70;;;;;;;;;;5008224;28;20019;-69
2023/08/05 05:34:10;;;;;;;5.82;3.20;;;;;;;;;;4994574;28;20034;-74
2023/08/05 05:36:55;;;;;;;5.70;2.75;;;;;;;;;;5004505;28;20432;-72
2023/08/05 05:39:41;;;;;;;6.47;4.00;;;;;;;;;;4998782;28;20047;-74
2023/08/05 05:42:26;;;;;;;5.85;3.83;;;;;;;;;;4990327;28;20085;-73
2023/08/05 05:45:11;;;;;;;7.53;3.42;;;;;;;;;;5001942;28;20030;-73
2023/08/05 05:47:56;;;;;;;9.77;4.13;;;;;;;;;;5003599;28;20022;-75
2023/08/05 05:50:42;;;;;;;5.82;3.80;;;;;;;;;;4990717;28;20465;-76
2023/08/05 05:53:27;;;;;;;5.20;3.17;;;;;;;;;;4992889;28;20045;-73
2023/08/05 05:56:12;;;;;;;5.00;3.22;;;;;;;;;;4990209;28;20389;-74
2023/08/05 05:58:58;;;;;;;8.38;3.65;;;;;;;;;;4997099;28;20025;-74
2023/08/05 06:01:44;;;;;;;9.80;4.25;;;;;;;;;;4991490;28;20073;-73
2023/08/05 06:04:30;;;;;;;8.70;4.18;;;;;;;;;;5009668;28;20034;-74
2023/08/05 06:07:15;;;;;;;5.20;3.58;;;;;;;;;;5003400;28;20031;-74
2023/08/05 06:10:00;;;;;;;5.72;3.50;;;;;;;;;;4992054;28;20469;-74
2023/08/05 06:12:45;;;;;;;8.77;3.47;;;;;;;;;;5009490;28;20030;-75
2023/08/05 06:15:31;;;;;;;4.72;2.83;;;;;;;;;;5018714;28;20022;-75
2023/08/05 06:18:16;;;;;;;6.10;3.22;;;;;;;;;;5000457;28;20021;-75
2023/08/05 06:21:01;;;;;;;5.55;3.20;;;;;;;;;;5004487;28;20447;-77
2023/08/05 06:23:46;;;;;;;5.57;3.10;;;;;;;;;;5010258;28;20068;-75
2023/08/05 06:26:31;;;;;;;4.78;3.10;;;;;;;;;;4997555;28;20038;-68
2023/08/05 06:29:17;;;;;;;4.95;3.15;;;;;;;;;;5004231;28;20492;-73
2023/08/05 06:32:02;;;;;;;6.20;3.10;;;;;;;;;;5008897;28;20025;-73
2023/08/05 06:34:47;;;;;;;6.80;3.30;;;;;;;;;;5005111;28;20053;-74
2023/08/05 06:37:33;;;;;;;4.85;2.75;;;;;;;;;;4992231;28;20053;-73
2023/08/05 06:40:18;;;;;;;7.15;3.22;;;;;;;;;;5007151;28;20601;-73
2023/08/05 06:43:03;;;;;;;6.45;3.22;;;;;;;;;;5010007;28;20037;-72
2023/08/05 06:45:48;;;;;;;5.40;3.30;;;;;;;;;;5008079;28;20030;-71
2023/08/05 06:48:33;;;;;;;4.97;3.05;;;;;;;;;;5013150;28;20021;-71
2023/08/05 06:51:19;;;;;;;6.60;3.05;;;;;;;;;;5007519;28;20034;-74
2023/08/05 06:54:04;;;;;;;5.53;3.30;;;;;;;;;;4995139;28;20046;-72
2023/08/05 06:56:51;;;;;;;6.45;2.83;;;;;;;;;;4993239;28;20029;-72
2023/08/05 06:59:36;;;;;;;5.70;2.92;;;;;;;;;;4998324;28;20477;-72
2023/08/05 07:02:21;;;;;;;7.25;3.35;;;;;;;;;;4994026;28;20109;-72
2023/08/05 07:05:07;;;;;;;6.50;3.50;;;;;;;;;;5015755;28;20103;-74
2023/08/05 07:07:52;;;;;;;4.70;3.45;;;;;;;;;;5018685;28;20037;-74
2023/08/05 07:10:37;;;;;;;6.80;3.35;;;;;;;;;;5003610;28;20090;-75
2023/08/05 07:13:23;;;;;;;4.43;2.88;;;;;;;;;;5008377;28;20018;-75
2023/08/05 07:16:08;;;;;;;3.95;2.88;;;;;;;;;;4994164;28;20030;-74
2023/08/05 07:18:53;;;;;;;8.30;3.30;;;;;;;;;;5005894;28;20019;-72
2023/08/05 07:21:39;;;;;;;6.57;3.67;;;;;;;;;;5007581;28;20054;-69
2023/08/05 07:24:24;;;;;;;4.28;2.88;;;;;;;;;;5000414;28;20083;-68
2023/08/05 07:27:09;;;;;;;5.57;2.78;;;;;;;;;;5006267;28;20390;-68
2023/08/05 07:29:55;;;;;;;5.28;3.22;;;;;;;;;;5009601;28;20045;-69
2023/08/05 07:32:40;;;;;;;4.13;2.42;;;;;;;;;;4995649;28;20033;-69
2023/08/05 07:35:28;;;;;;;3.90;2.58;;;;;;;;;;5004581;28;20493;-68
2023/08/05 07:38:14;;;;;;;5.22;2.97;;;;;;;;;;4988586;28;20420;-68
2023/08/05 07:40:59;;;;;;;5.30;2.90;;;;;;;;;;5002024;28;20024;-76
2023/08/05 07:43:44;;;;;;;6.13;2.95;;;;;;;;;;4995380;28;20029;-72
2023/08/05 07:46:36;;;;;;;4.18;2.83;;;;;;;;;;5006954;28;20022;-72
2023/08/05 07:49:21;;;;;;;4.88;3.10;;;;;;;;;;4993634;28;20040;-70
2023/08/05 07:52:06;;;;;;;5.57;3.13;;;;;;;;;;4999787;28;20073;-70
2023/08/05 07:54:52;;;;;;;3.83;2.42;;;;;;;;;;5000752;28;20065;-71
2023/08/05 07:57:37;;;;;;;5.82;3.22;;;;;;;;;;4996982;28;20023;-70
2023/08/05 08:00:23;;;;;;;5.68;2.60;;;;;;;;;;4994002;28;20026;-74
2023/08/05 08:03:08;;;;;;;4.85;3.10;;;;;;;;;;4996152;28;20064;-69
2023/08/05 08:05:53;;;;;;;5.20;2.92;;;;;;;;;;5000407;28;20393;-70
2023/08/05 08:08:38;;;;;;;3.17;2.60;;;;;;;;;;4993232;28;20026;-71
2023/08/05 08:11:24;;;;;;;9.38;2.60;;;;;;;;;;5000959;28;20032;-69
2023/08/05 08:14:09;;;;;;;5.63;2.72;;;;;;;;;;5001478;28;20039;-72
2023/08/05 08:16:54;;;;;;;4.95;2.80;;;;;;;;;;5001829;28;20021;-75
2023/08/05 08:19:39;;;;;;;6.28;2.42;;;;;;;;;;5004170;28;20051;-73
2023/08/05 08:22:25;;;;;;;4.05;2.78;;;;;;;;;;4996962;28;20045;-70
2023/08/05 08:25:10;;;;;;;2.53;1.95;;;;;;;;;;4995901;28;20032;-71
2023/08/05 08:27:55;;;;;;;4.68;2.63;;;;;;;;;;5009117;28;20033;-71
2023/08/05 08:30:50;;;;;;;3.63;2.35;;;;;;;;;;5015807;28;20376;-72
2023/08/05 08:33:35;;;;;;;5.28;2.30;;;;;;;;;;4984018;28;20168;-71
2023/08/05 08:36:20;;;;;;;4.30;2.70;;;;;;;;;;5007403;28;20171;-69
2023/08/05 08:39:05;;;;;;;3.63;2.33;;;;;;;;;;5016340;28;20033;-74
2023/08/05 08:41:52;;;;;;;3.45;2.28;;;;;;;;;;4996004;28;20030;-74
2023/08/05 08:44:38;;;;;;;5.85;2.10;;;;;;;;;;5001518;28;20030;-75
2023/08/05 08:47:24;;;;;;;4.60;2.20;;;;;;;;;;4999406;28;20031;-76
2023/08/05 08:50:10;;;;;;;3.65;2.17;;;;;;;;;;5002287;28;20022;-74
2023/08/05 08:52:57;;;;;;;4.72;2.33;;;;;;;;;;4995317;28;20386;-75
2023/08/05 08:55:43;;;;;;;5.38;2.42;;;;;;;;;;5003212;28;20042;-72
2023/08/05 08:58:28;;;;;;;3.90;1.88;;;;;;;;;;5034696;23;20049;-75
2023/08/05 09:01:16;;;;;;;3.40;2.08;;;;;;;;;;5032049;28;20036;-74
2023/08/05 09:04:01;;;;;;;4.22;2.47;;;;;;;;;;5026535;28;20044;-75
2023/08/05 09:06:49;;;;;;;3.13;1.90;;;;;;;;;;5030066;28;20045;-74
2023/08/05 09:09:35;;;;;;;3.92;1.88;;;;;;;;;;5030743;28;20032;-74
2023/08/05 09:12:20;;;;;;;2.85;1.88;;;;;;;;;;5041655;28;20446;-70
2023/08/05 09:15:05;;;;;;;5.03;2.33;;;;;;;;;;5069384;22;20041;-66
2023/08/05 09:17:56;;;;;;;4.25;2.13;;;;;;;;;;5000571;28;20286;-70
2023/08/05 09:20:41;;;;;;;5.55;2.10;;;;;;;;;;5006095;28;20045;-68
2023/08/05 09:23:26;;;;;;;3.08;1.95;;;;;;;;;;4989764;28;20473;-67
2023/08/05 09:26:11;;;;;;;4.03;2.65;;;;;;;;;;5000454;28;20045;-68
2023/08/05 09:28:57;;;;;;;2.80;2.00;;;;;;;;;;4989897;28;20033;-66
2023/08/05 09:31:44;;;;;;;4.60;1.85;;;;;;;;;;4996532;28;20358;-63
2023/08/05 09:34:35;;;;;;;3.03;1.83;;;;;;;;;;5003467;28;20038;-74
2023/08/05 09:37:21;;;;;;;3.70;2.00;;;;;;;;;;5003451;28;20667;-74
2023/08/05 09:40:17;;;;;;;3.85;1.70;;;;;;;;;;4989890;28;20038;-74
2023/08/05 09:43:03;;;;;;;3.85;1.70;;;;;;;;;;5003617;28;20039;-74
2023/08/05 09:45:49;;;;;;;4.63;1.70;;;;;;;;;;5003099;28;20034;-75
2023/08/05 09:48:38;;;;;;;3.65;1.95;;;;;;;;;;4989688;28;20066;-62
2023/08/05 09:51:24;;;;;;;4.03;2.60;;;;;;;;;;4989991;28;20375;-71
2023/08/05 09:54:13;;;;;;;4.53;2.20;;;;;;;;;;4994789;28;20096;-80
2023/08/05 09:57:00;;;;;;;2.42;1.65;;;;;;;;;;4989279;28;20593;-79
2023/08/05 09:59:46;;;;;;;3.53;1.80;;;;;;;;;;4989946;28;20503;-77
2023/08/05 10:02:33;;;;;;;2.80;1.60;;;;;;;;;;5004326;28;20545;-79
2023/08/05 10:05:19;;;;;;;2.28;1.80;;;;;;;;;;5003127;28;20121;-77
2023/08/05 10:08:06;;;;;;;3.58;2.10;;;;;;;;;;5004181;28;20382;-72
2023/08/05 10:10:52;;;;;;;4.18;2.22;;;;;;;;;;5004142;28;20084;-69
2023/08/05 10:13:40;;;;;;;4.22;2.08;;;;;;;;;;5004091;28;20038;-69
2023/08/05 10:16:26;;;;;;;2.07;1.73;;;;;;;;;;4997484;28;20046;-68
2023/08/05 10:19:11;;;;;;;2.65;2.00;;;;;;;;;;5003329;28;20035;-68
2023/08/05 10:22:09;;;;;;;2.60;1.73;;;;;;;;;;4984243;28;20121;-69
2023/08/05 10:24:56;;;;;;;4.15;2.58;;;;;;;;;;4980823;28;20045;-66
2023/08/05 10:27:44;;;;;;;3.92;1.88;;;;;;;;;;4990195;28;20070;-68
2023/08/05 10:30:30;;;;;;;3.05;1.80;;;;;;;;;;5006414;28;20030;-61
2023/08/05 10:33:16;;;;;;;4.10;2.00;;;;;;;;;;4989678;28;20066;-62
2023/08/05 10:36:02;;;;;;;2.65;1.90;;;;;;;;;;5002787;28;20042;-63
2023/08/05 10:38:47;;;;;;;4.10;1.88;;;;;;;;;;4994196;28;20062;-64
2023/08/05 10:41:37;;;;;;;3.50;2.08;;;;;;;;;;4996330;28;20092;-64
2023/08/05 10:44:22;;;;;;;;;;;;;;;;;;5000079;28;20030;-69
2023/08/05 10:47:07;;;;;;;3.78;1.70;;;;;;;;;;4986283;28;19989;-67
2023/08/05 10:49:58;;;;;;;3.63;2.28;;;;;;;;;;4980419;28;20481;-67
2023/08/05 10:52:44;;;;;;;2.65;2.15;;;;;;;;;;4994075;28;20125;-66
2023/08/05 10:55:29;;;;;;;9.30;2.28;;;;;;;;;;4982152;28;20038;-67
2023/08/05 10:58:15;;;;;;;3.50;2.30;;;;;;;;;;4988365;28;20042;-67
2023/08/05 11:01:01;;;;;;;4.53;1.73;;;;;;;;;;5003068;28;20034;-66
2023/08/05 11:03:46;;;;;;;3.38;2.28;;;;;;;;;;4985640;28;20064;-74
2023/08/05 11:06:37;;;;;;;3.17;1.80;;;;;;;;;;4988595;28;20142;-73
2023/08/05 11:09:23;;;;;;;2.38;1.90;;;;;;;;;;4987082;28;20113;-74
2023/08/05 11:12:08;;;;;;;3.20;2.00;;;;;;;;;;4988925;28;20421;-73
2023/08/05 11:14:53;;;;;;;2.20;1.73;;;;;;;;;;4985132;28;20058;-75
2023/08/05 11:18:05;;;;;;;2.58;1.90;;;;;;;;;;4985404;28;20062;-73
2023/08/05 11:20:50;;;;;;;6.07;2.10;;;;;;;;;;4986558;28;20053;-67
2023/08/05 11:23:39;;;;;;;2.67;2.10;;;;;;;;;;4988537;28;20509;-72
2023/08/05 11:26:24;;;;;;;;;;;;;;;;;;4989550;28;20040;-77
2023/08/05 11:29:10;;;;;;;1.77;1.50;;;;;;;;;;4983319;28;19910;-79
2023/08/05 11:31:55;;;;;;;2.78;1.70;;;;;;;;;;5008701;28;20038;-78
2023/08/05 11:34:40;;;;;;;2.10;1.90;;;;;;;;;;4999593;28;20038;-79
2023/08/05 11:37:25;;;;;;;4.13;1.90;;;;;;;;;;5003232;28;20472;-77
2023/08/05 11:40:11;;;;;;;4.45;2.38;;;;;;;;;;5001657;28;20387;-67
2023/08/05 11:42:56;;;;;;;3.47;2.10;;;;;;;;;;5002241;28;20027;-72
2023/08/05 11:45:42;;;;;;;2.38;1.80;;;;;;;;;;4978826;28;20047;-72
2023/08/05 11:48:28;;;;;;;3.55;1.90;;;;;;;;;;4984851;28;20232;-69
2023/08/05 11:51:13;;;;;;;2.97;2.05;;;;;;;;;;5008431;28;20038;-68
2023/08/05 11:53:59;;;;;;;2.58;1.80;;;;;;;;;;4988040;28;20026;-68
2023/08/05 11:56:44;;;;;;;2.10;1.65;;;;;;;;;;5001724;28;20034;-68
2023/08/05 11:59:42;;;;;;;6.07;2.63;;;;;;;;;;4971711;28;20088;-73
2023/08/05 12:02:27;;;;;;;7.18;2.38;;;;;;;;;;5001589;28;20026;-68
2023/08/05 12:05:12;;;;;;;2.83;2.30;;;;;;;;;;4984433;28;20109;-68
2023/08/05 12:07:57;;;;;;;3.72;2.00;;;;;;;;;;4988555;28;20458;-67
2023/08/05 12:10:55;;;;;;;2.92;1.85;;;;;;;;;;4987616;28;20023;-68
2023/08/05 12:13:41;;;;;;;1.83;1.70;;;;;;;;;;4974946;28;20042;-66
2023/08/05 12:16:28;;;;;;;3.30;2.00;;;;;;;;;;4987327;28;20231;-79
2023/08/05 12:19:14;;;;;;;8.55;2.78;;;;;;;;;;4990439;28;20026;-74
2023/08/05 12:21:59;;;;;;;2.38;1.80;;;;;;;;;;4986747;28;20470;-73
2023/08/05 12:24:45;;;;;;;4.82;2.40;;;;;;;;;;4977830;28;20027;-74
2023/08/05 12:27:30;;;;;;;2.55;2.03;;;;;;;;;;4999572;28;20070;-74
2023/08/05 12:30:15;;;;;;;3.65;2.00;;;;;;;;;;4990326;28;20092;-74
2023/08/05 12:33:02;;;;;;;2.00;1.80;;;;;;;;;;4988112;28;20022;-74
2023/08/05 12:35:48;;;;;;;3.53;2.13;;;;;;;;;;4976989;28;20034;-69
2023/08/05 12:38:33;;;;;;;2.67;1.85;;;;;;;;;;5022554;23;20088;-76
2023/08/05 12:41:21;;;;;;;2.75;1.90;;;;;;;;;;5001286;28;20260;-77
2023/08/05 12:44:06;;;;;;;3.50;2.30;;;;;;;;;;5008159;28;20034;-78
2023/08/05 12:46:52;;;;;;;3.53;2.10;;;;;;;;;;5016020;28;20068;-77
2023/08/05 12:49:39;;;;;;;4.82;2.22;;;;;;;;;;5001702;28;20030;-79
2023/08/05 12:52:25;;;;;;;3.45;1.75;;;;;;;;;;4990386;28;20038;-69
2023/08/05 12:55:10;;;;;;;4.90;1.90;;;;;;;;;;5001080;28;20056;-76
2023/08/05 12:57:55;;;;;;;2.35;1.63;;;;;;;;;;5005058;28;20042;-72
2023/08/05 13:00:40;;;;;;;5.28;2.17;;;;;;;;;;4993826;28;20405;-72
2023/08/05 13:03:26;;;;;;;4.82;2.50;;;;;;;;;;5004885;28;20090;-71
2023/08/05 13:06:11;;;;;;;4.70;2.55;;;;;;;;;;4988379;28;20030;-71
2023/08/05 13:08:56;;;;;;;4.80;2.42;;;;;;;;;;4993414;28;20113;-75
2023/08/05 13:11:41;;;;;;;4.97;2.17;;;;;;;;;;4998667;28;20511;-75
2023/08/05 13:14:26;;;;;;;4.05;2.40;;;;;;;;;;5018397;28;20062;-70
2023/08/05 13:17:12;;;;;;;3.90;2.35;;;;;;;;;;5018744;28;20029;-72
2023/08/05 13:19:57;;;;;;;5.40;2.50;;;;;;;;;;5013246;28;20057;-70
2023/08/05 13:22:42;;;;;;;2.72;2.00;;;;;;;;;;4991538;28;20061;-70
2023/08/05 13:25:27;;;;;;;4.60;2.28;;;;;;;;;;5027787;28;20034;-70
2023/08/05 13:28:13;;;;;;;5.18;2.85;;;;;;;;;;4997422;28;20034;-70
2023/08/05 13:31:02;;;;;;;2.88;2.00;;;;;;;;;;5032278;28;20092;-72
2023/08/05 13:33:47;;;;;;;2.08;1.63;;;;;;;;;;4997965;28;20038;-76
2023/08/05 13:36:32;;;;;;;3.90;2.22;;;;;;;;;;5050930;28;20064;-77
2023/08/05 13:39:17;;;;;;;4.72;2.20;;;;;;;;;;5016091;28;20439;-77
2023/08/05 13:42:03;;;;;;;2.70;2.40;;;;;;;;;;5035268;28;20514;-78
2023/08/05 13:44:48;;;;;;;3.97;2.00;;;;;;;;;;5027801;28;20377;-77
2023/08/05 13:47:33;;;;;;;2.85;1.90;;;;;;;;;;5030763;28;20086;-74
2023/08/05 13:50:19;;;;;;;3.70;2.05;;;;;;;;;;4997302;28;20124;-69
2023/08/05 13:53:05;;;;;;;2.42;1.90;;;;;;;;;;5034634;28;20033;-73
2023/08/05 13:55:56;;;;;;;2.50;2.10;;;;;;;;;;5010635;28;20205;-73
2023/08/05 13:58:42;;;;;;;2.83;2.30;;;;;;;;;;5023471;28;20034;-73
2023/08/05 14:01:27;;;;;;;6.57;2.35;;;;;;;;;;5035171;28;20036;-72
2023/08/05 14:04:12;;;;;;;2.28;1.80;;;;;;;;;;5019693;28;20103;-75
2023/08/05 14:06:57;;;;;;;3.15;2.13;;;;;;;;;;5012798;28;20034;-77
2023/08/05 14:09:43;;;;;;;1.92;1.60;;;;;;;;;;5018072;28;20022;-76
2023/08/05 14:12:28;;;;;;;2.42;1.77;;;;;;;;;;5013586;28;20029;-77
2023/08/05 14:15:13;;;;;;;2.63;2.03;;;;;;;;;;4999245;28;20183;-77
2023/08/05 14:17:58;;;;;;;2.65;1.98;;;;;;;;;;5024293;28;20037;-76
2023/08/05 14:20:43;;;;;;;3.08;1.98;;;;;;;;;;5031291;28;20025;-76
2023/08/05 14:23:29;;;;;;;2.47;1.92;;;;;;;;;;5030559;28;20037;-78
2023/08/05 14:26:14;;;;;;;2.65;1.92;;;;;;;;;;5016432;28;20025;-73
2023/08/05 14:28:59;;;;;;;4.22;1.85;;;;;;;;;;5026064;28;20120;-76
2023/08/05 14:31:45;;;;;;;4.60;2.25;;;;;;;;;;5036059;28;20114;-77
2023/08/05 14:34:30;;;;;;;4.38;2.40;;;;;;;;;;5017505;28;20497;-76
2023/08/05 14:37:15;;;;;;;4.88;2.08;;;;;;;;;;5011865;28;20475;-76
2023/08/05 14:40:01;;;;;;;2.75;2.08;;;;;;;;;;5014013;28;20049;-77
2023/08/05 14:42:46;;;;;;;5.97;2.13;;;;;;;;;;5024855;28;20108;-74
2023/08/05 14:45:31;;;;;;;3.22;2.15;;;;;;;;;;5029307;28;20500;-71
2023/08/05 14:48:16;;;;;;;3.42;2.33;;;;;;;;;;5028421;28;20037;-77
2023/08/05 14:51:02;;;;;;;3.83;1.73;;;;;;;;;;5020909;28;20111;-76
2023/08/05 14:53:47;;;;;;;2.55;1.70;;;;;;;;;;5019113;28;20029;-75
2023/08/05 14:56:33;;;;;;;5.55;1.90;;;;;;;;;;5036397;28;20133;-75
2023/08/05 14:59:18;;;;;;;2.35;1.60;;;;;;;;;;5037533;28;20572;-75
2023/08/05 15:02:03;;;;;;;3.00;1.73;;;;;;;;;;5011298;28;20025;-68
2023/08/05 15:04:49;;;;;;;4.15;2.00;;;;;;;;;;5021733;28;20029;-68
2023/08/05 15:07:34;;;;;;;4.28;2.17;;;;;;;;;;5030220;28;20052;-67
2023/08/05 15:10:21;;;;;;;1.70;1.60;;;;;;;;;;5029276;28;20388;-69
2023/08/05 15:13:06;;;;;;;3.63;1.95;;;;;;;;;;5018116;28;20392;-69
2023/08/05 15:15:51;;;;;;;3.95;1.88;;;;;;;;;;5022606;28;20041;-69
2023/08/05 15:18:36;;;;;;;2.47;1.92;;;;;;;;;;5016038;28;20025;-68
2023/08/05 15:21:21;;;;;;;4.28;1.77;;;;;;;;;;5028907;28;20026;-76
2023/08/05 15:24:07;;;;;;;5.18;2.00;;;;;;;;;;5011060;28;20104;-69
2023/08/05 15:26:52;;;;;;;3.78;2.20;;;;;;;;;;5021947;28;20100;-69
2023/08/05 15:29:37;;;;;;;3.78;2.35;;;;;;;;;;5030286;28;20412;-68
2023/08/05 15:32:23;;;;;;;2.80;1.98;;;;;;;;;;5020996;28;20094;-69
2023/08/05 15:35:09;;;;;;;3.53;2.17;;;;;;;;;;5007741;28;20092;-68
2023/08/05 15:37:54;;;;;;;3.67;1.95;;;;;;;;;;5024789;28;20099;-68
2023/08/05 15:40:40;;;;;;;2.78;2.30;;;;;;;;;;5017940;28;20033;-78
2023/08/05 15:43:25;;;;;;;3.60;2.40;;;;;;;;;;5012715;28;20542;-74
2023/08/05 15:46:10;;;;;;;3.28;1.80;;;;;;;;;;5015077;28;20105;-73
2023/08/05 15:48:55;;;;;;;4.22;2.33;;;;;;;;;;5021860;28;20029;-73
2023/08/05 15:51:41;;;;;;;4.45;2.97;;;;;;;;;;5021750;28;20064;-72
2023/08/05 15:54:26;;;;;;;3.55;2.33;;;;;;;;;;5025439;28;20033;-72
2023/08/05 15:57:12;;;;;;;4.22;2.60;;;;;;;;;;5009279;28;20081;-71
2023/08/05 15:59:57;;;;;;;2.97;1.90;;;;;;;;;;5024237;28;20124;-73
2023/08/05 16:02:43;;;;;;;3.17;2.05;;;;;;;;;;5014344;28;20013;-72
2023/08/05 16:05:28;;;;;;;3.28;1.90;;;;;;;;;;5013483;28;20030;-72
2023/08/05 16:08:13;;;;;;;3.85;2.13;;;;;;;;;;5017702;28;20503;-72
2023/08/05 16:11:03;;;;;;;3.85;1.95;;;;;;;;;;5029296;28;20029;-74
2023/08/05 16:13:48;;;;;;;4.00;2.50;;;;;;;;;;5017809;28;20029;-72
2023/08/05 16:16:33;;;;;;;5.18;2.22;;;;;;;;;;5025768;28;20040;-75
2023/08/05 16:19:20;;;;;;;3.40;2.30;;;;;;;;;;5031083;28;20123;-78
2023/08/05 16:22:06;;;;;;;3.08;2.42;;;;;;;;;;5023789;28;20126;-76
2023/08/05 16:24:51;;;;;;;3.47;2.25;;;;;;;;;;5005493;28;20389;-77
2023/08/05 16:27:40;;;;;;;3.70;1.83;;;;;;;;;;5008380;28;20025;-78
2023/08/05 16:30:25;;;;;;;4.57;2.60;;;;;;;;;;5025649;28;20047;-77
2023/08/05 16:33:10;;;;;;;8.93;3.25;;;;;;;;;;5012611;28;20109;-68